Time;durP1;ratioP1;P1;durP2;ratioP2;P2;SDS_P1;SDS_P2;PMS_P1;PMS_P2;Temp;Humidity;BMP_temperature;BMP_pressure;BME280_temperature;BME280_humidity;BME280_pressure;Samples;Min_cycle;Max_cycle;Signal;HPM_P1;HPM_P2
2023/06/20 00:01:42;;;;;;;11.38;8.15;;;;;;;;;;5137073;27;20668;-48
2023/06/20 00:04:09;;;;;;;7.80;6.28;;;;;;;;;;5136962;27;20233;-51
2023/06/20 00:06:36;;;;;;;10.10;6.85;;;;;;;;;;5137433;27;20551;-49
2023/06/20 00:09:03;;;;;;;9.73;6.40;;;;;;;;;;5137215;27;20210;-50
2023/06/20 00:11:31;;;;;;;9.65;6.90;;;;;;;;;;5137209;27;20209;-49
2023/06/20 00:13:58;;;;;;;9.15;7.05;;;;;;;;;;5136952;27;20575;-50
2023/06/20 00:16:25;;;;;;;9.90;6.63;;;;;;;;;;5137033;27;20205;-48
2023/06/20 00:18:55;;;;;;;9.93;6.50;;;;;;;;;;5136724;27;20300;-48
2023/06/20 00:21:25;;;;;;;10.95;7.93;;;;;;;;;;5137046;27;20257;-51
2023/06/20 00:23:56;;;;;;;13.38;8.02;;;;;;;;;;5137277;27;20238;-48
2023/06/20 00:26:23;;;;;;;10.38;7.93;;;;;;;;;;5136809;27;20193;-48
2023/06/20 00:28:51;;;;;;;13.50;7.45;;;;;;;;;;5136618;27;20198;-50
2023/06/20 00:31:18;;;;;;;10.32;7.30;;;;;;;;;;5136508;27;20201;-48
2023/06/20 00:33:47;;;;;;;10.45;7.03;;;;;;;;;;5118553;27;20206;-49
2023/06/20 00:36:15;;;;;;;14.23;7.95;;;;;;;;;;5118227;27;20205;-47
2023/06/20 00:38:48;;;;;;;10.50;8.00;;;;;;;;;;5135466;27;20262;-49
2023/06/20 00:41:17;;;;;;;11.77;8.40;;;;;;;;;;5136502;27;20204;-49
2023/06/20 00:43:45;;;;;;;10.70;8.43;;;;;;;;;;5118322;27;20204;-49
2023/06/20 00:46:17;;;;;;;12.68;8.27;;;;;;;;;;5136764;27;20205;-49
2023/06/20 00:48:45;;;;;;;15.60;8.93;;;;;;;;;;5136614;27;20189;-48
2023/06/20 00:51:14;;;;;;;11.63;8.43;;;;;;;;;;5136396;27;20254;-50
2023/06/20 00:53:43;;;;;;;17.05;9.48;;;;;;;;;;5118856;27;20190;-48
2023/06/20 00:56:16;;;;;;;17.50;9.23;;;;;;;;;;5136117;27;20201;-49
2023/06/20 00:58:45;;;;;;;14.70;10.38;;;;;;;;;;5136571;27;20228;-48
2023/06/20 01:01:16;;;;;;;14.15;9.90;;;;;;;;;;5136194;27;20570;-47
2023/06/20 01:03:48;;;;;;;16.30;10.93;;;;;;;;;;5136149;27;20186;-49
2023/06/20 01:06:43;;;;;;;17.80;11.52;;;;;;;;;;5118468;27;20227;-48
2023/06/20 01:09:28;;;;;;;18.25;11.23;;;;;;;;;;5101134;27;20220;-49
2023/06/20 01:12:17;;;;;;;16.05;10.93;;;;;;;;;;5117532;27;20193;-47
2023/06/20 01:15:07;;;;;;;15.48;9.73;;;;;;;;;;5135767;27;20555;-47
2023/06/20 01:17:43;;;;;;;15.18;10.00;;;;;;;;;;5135906;27;20683;-48
2023/06/20 01:20:45;;;;;;;15.77;9.85;;;;;;;;;;5117746;27;20248;-48
2023/06/20 01:23:16;;;;;;;12.38;8.77;;;;;;;;;;5090797;27;20197;-48
2023/06/20 01:25:52;;;;;;;13.13;9.23;;;;;;;;;;5100826;27;20251;-50
2023/06/20 01:28:24;;;;;;;13.20;9.13;;;;;;;;;;5117496;27;20234;-49
2023/06/20 01:31:05;;;;;;;13.18;9.27;;;;;;;;;;5117324;27;20208;-48
2023/06/20 01:33:38;;;;;;;15.57;9.27;;;;;;;;;;5117020;27;20205;-48
2023/06/20 01:36:06;;;;;;;13.07;9.07;;;;;;;;;;5100021;27;20231;-47
2023/06/20 01:38:37;;;;;;;13.30;8.98;;;;;;;;;;5117180;27;20221;-49
2023/06/20 01:41:05;;;;;;;14.25;8.05;;;;;;;;;;5117200;27;20266;-49
2023/06/20 01:43:32;;;;;;;12.35;8.52;;;;;;;;;;5117171;27;20205;-48
2023/06/20 01:46:04;;;;;;;12.55;8.45;;;;;;;;;;5100191;27;20213;-48
2023/06/20 01:48:33;;;;;;;13.75;7.57;;;;;;;;;;5116750;27;20227;-52
2023/06/20 01:51:01;;;;;;;10.73;7.65;;;;;;;;;;5116624;27;20567;-51
2023/06/20 01:53:29;;;;;;;13.20;8.07;;;;;;;;;;5116459;27;20201;-52
2023/06/20 01:56:01;;;;;;;12.88;7.70;;;;;;;;;;5100063;27;20193;-51
2023/06/20 01:58:33;;;;;;;11.27;7.70;;;;;;;;;;5099959;27;20189;-50
2023/06/20 02:01:01;;;;;;;12.75;7.65;;;;;;;;;;5099878;27;20349;-52
2023/06/20 02:03:29;;;;;;;10.32;7.30;;;;;;;;;;5134786;27;20198;-50
2023/06/20 02:05:57;;;;;;;13.82;8.07;;;;;;;;;;5116260;27;20240;-49
2023/06/20 02:08:26;;;;;;;12.95;8.85;;;;;;;;;;5099772;27;20197;-48
2023/06/20 02:10:55;;;;;;;14.60;9.73;;;;;;;;;;5116172;27;20237;-49
2023/06/20 02:13:23;;;;;;;16.83;8.95;;;;;;;;;;5116084;27;20224;-50
2023/06/20 02:15:54;;;;;;;13.30;8.95;;;;;;;;;;5099295;27;20205;-48
2023/06/20 02:18:22;;;;;;;14.00;8.20;;;;;;;;;;5115391;27;20201;-48
2023/06/20 02:20:51;;;;;;;9.25;7.00;;;;;;;;;;5128226;27;20287;-50
2023/06/20 02:23:29;;;;;;;9.48;7.55;;;;;;;;;;5093736;28;20205;-48
2023/06/20 02:26:01;;;;;;;11.55;6.28;;;;;;;;;;5112341;28;20186;-48
2023/06/20 02:28:29;;;;;;;13.70;8.40;;;;;;;;;;5094274;28;20205;-48
2023/06/20 02:30:56;;;;;;;11.80;8.25;;;;;;;;;;5112037;28;20290;-49
2023/06/20 02:33:24;;;;;;;15.13;7.97;;;;;;;;;;5093648;28;20205;-48
2023/06/20 02:35:52;;;;;;;11.20;8.05;;;;;;;;;;5111690;28;20748;-48
2023/06/20 02:38:20;;;;;;;12.30;8.57;;;;;;;;;;5093617;28;20202;-47
2023/06/20 02:40:47;;;;;;;14.75;8.98;;;;;;;;;;5094044;28;20317;-48
2023/06/20 02:43:14;;;;;;;14.93;9.70;;;;;;;;;;5079080;28;20235;-48
2023/06/20 02:45:41;;;;;;;13.00;9.30;;;;;;;;;;5095700;28;20228;-52
2023/06/20 02:48:24;;;;;;;15.15;10.07;;;;;;;;;;5079047;28;20604;-47
2023/06/20 02:51:17;;;;;;;13.10;9.20;;;;;;;;;;5113803;28;20284;-51
2023/06/20 02:53:45;;;;;;;13.05;8.43;;;;;;;;;;5103359;28;20258;-52
2023/06/20 02:56:14;;;;;;;10.55;7.65;;;;;;;;;;5113782;28;20205;-51
2023/06/20 02:58:45;;;;;;;9.27;6.90;;;;;;;;;;5079502;28;20198;-51
2023/06/20 03:01:17;;;;;;;14.25;8.50;;;;;;;;;;5115079;28;20222;-51
2023/06/20 03:03:45;;;;;;;11.88;6.75;;;;;;;;;;5099351;28;20522;-48
2023/06/20 03:06:14;;;;;;;15.23;7.88;;;;;;;;;;5099607;28;20699;-49
2023/06/20 03:08:44;;;;;;;11.75;7.85;;;;;;;;;;5082741;28;20198;-48
2023/06/20 03:11:11;;;;;;;13.25;7.15;;;;;;;;;;5083186;28;20247;-48
2023/06/20 03:13:39;;;;;;;12.98;7.85;;;;;;;;;;5099526;28;20198;-49
2023/06/20 03:16:09;;;;;;;12.45;7.78;;;;;;;;;;5116738;27;20198;-49
2023/06/20 03:18:37;;;;;;;12.88;7.35;;;;;;;;;;5099727;28;20235;-48
2023/06/20 03:21:05;;;;;;;12.13;7.10;;;;;;;;;;5099312;28;20642;-48
2023/06/20 03:23:53;;;;;;;14.43;7.80;;;;;;;;;;5099472;28;20197;-48
2023/06/20 03:26:20;;;;;;;10.57;7.63;;;;;;;;;;5116761;28;20244;-50
2023/06/20 03:28:48;;;;;;;11.48;8.18;;;;;;;;;;5111591;28;20255;-50
2023/06/20 03:31:15;;;;;;;11.55;8.57;;;;;;;;;;5101088;27;20248;-50
2023/06/20 03:33:42;;;;;;;11.82;8.52;;;;;;;;;;5119341;27;20197;-48
2023/06/20 03:36:10;;;;;;;12.90;9.00;;;;;;;;;;5137675;27;20667;-49
2023/06/20 03:38:39;;;;;;;18.83;9.27;;;;;;;;;;5119356;27;20668;-51
2023/06/20 03:41:06;;;;;;;13.35;9.23;;;;;;;;;;5119544;27;20236;-49
2023/06/20 03:43:34;;;;;;;14.95;9.38;;;;;;;;;;5119477;27;20208;-48
2023/06/20 03:46:01;;;;;;;10.48;7.97;;;;;;;;;;5117912;27;20560;-55
2023/06/20 03:48:29;;;;;;;13.23;8.95;;;;;;;;;;5119344;27;20254;-48
2023/06/20 03:50:57;;;;;;;12.98;8.65;;;;;;;;;;5119040;27;20201;-49
2023/06/20 03:53:24;;;;;;;11.73;8.00;;;;;;;;;;5113099;27;20206;-51
2023/06/20 03:55:51;;;;;;;11.48;8.13;;;;;;;;;;5137607;27;20288;-49
2023/06/20 03:58:18;;;;;;;12.27;8.18;;;;;;;;;;5122357;27;20206;-54
2023/06/20 04:00:46;;;;;;;13.45;8.30;;;;;;;;;;5132439;27;20708;-50
2023/06/20 04:03:13;;;;;;;14.27;8.52;;;;;;;;;;5098422;28;20255;-49
2023/06/20 04:05:41;;;;;;;12.63;8.35;;;;;;;;;;5116609;28;20238;-49
2023/06/20 04:08:09;;;;;;;11.50;8.38;;;;;;;;;;5141744;27;20219;-50
2023/06/20 04:10:37;;;;;;;13.48;8.85;;;;;;;;;;5133075;27;20712;-48
2023/06/20 04:13:05;;;;;;;15.25;8.43;;;;;;;;;;5116466;27;20221;-51
2023/06/20 04:15:33;;;;;;;11.32;8.48;;;;;;;;;;5116409;27;20684;-47
2023/06/20 04:18:01;;;;;;;13.48;8.52;;;;;;;;;;5110267;27;20229;-50
2023/06/20 04:20:29;;;;;;;11.60;8.27;;;;;;;;;;5117672;27;20267;-48
2023/06/20 04:22:57;;;;;;;11.55;8.27;;;;;;;;;;5116963;27;20222;-50
2023/06/20 04:25:24;;;;;;;12.65;9.05;;;;;;;;;;5127171;27;20217;-55
2023/06/20 04:27:56;;;;;;;12.60;8.70;;;;;;;;;;5119628;27;21248;-50
2023/06/20 04:30:33;;;;;;;13.00;9.15;;;;;;;;;;5138546;27;20228;-55
2023/06/20 04:33:04;;;;;;;13.43;9.38;;;;;;;;;;5120715;27;20217;-49
2023/06/20 04:35:35;;;;;;;13.32;9.45;;;;;;;;;;5119869;27;20571;-49
2023/06/20 04:38:04;;;;;;;14.68;9.77;;;;;;;;;;5116811;27;20221;-48
2023/06/20 04:40:31;;;;;;;18.10;9.90;;;;;;;;;;5115923;27;20227;-54
2023/06/20 04:42:58;;;;;;;14.90;9.65;;;;;;;;;;5133983;27;20213;-57
2023/06/20 04:45:27;;;;;;;12.52;9.45;;;;;;;;;;5134993;27;20556;-55
2023/06/20 04:47:57;;;;;;;18.60;10.10;;;;;;;;;;5113969;27;20220;-55
2023/06/20 04:50:26;;;;;;;16.10;11.07;;;;;;;;;;5094484;27;20218;-51
2023/06/20 04:52:54;;;;;;;13.18;9.77;;;;;;;;;;5115278;27;20213;-55
2023/06/20 04:55:21;;;;;;;15.20;10.80;;;;;;;;;;5114537;27;20251;-53
2023/06/20 04:57:48;;;;;;;15.63;11.45;;;;;;;;;;5131549;27;20228;-55
2023/06/20 05:00:16;;;;;;;15.57;10.70;;;;;;;;;;5113052;27;20229;-55
2023/06/20 05:02:44;;;;;;;16.17;11.25;;;;;;;;;;5114342;27;20228;-55
2023/06/20 05:05:11;;;;;;;15.20;10.88;;;;;;;;;;5114360;27;20260;-56
2023/06/20 05:07:41;;;;;;;14.15;10.13;;;;;;;;;;5114893;27;20222;-57
2023/06/20 05:10:08;;;;;;;13.57;9.85;;;;;;;;;;5114816;27;20216;-55
2023/06/20 05:12:35;;;;;;;15.95;10.65;;;;;;;;;;5133608;27;20220;-55
2023/06/20 05:15:03;;;;;;;15.25;11.02;;;;;;;;;;5134577;27;20347;-58
2023/06/20 05:17:30;;;;;;;15.20;10.80;;;;;;;;;;5131797;27;20206;-58
2023/06/20 05:20:05;;;;;;;16.08;10.93;;;;;;;;;;5134504;27;20744;-59
2023/06/20 05:22:36;;;;;;;16.10;11.18;;;;;;;;;;5123120;27;20231;-58
2023/06/20 05:25:03;;;;;;;16.80;10.80;;;;;;;;;;5114140;28;20638;-56
2023/06/20 05:27:30;;;;;;;14.13;10.30;;;;;;;;;;5113680;28;20205;-56
2023/06/20 05:29:57;;;;;;;14.90;10.45;;;;;;;;;;5114205;28;20533;-57
2023/06/20 05:32:25;;;;;;;15.15;10.65;;;;;;;;;;5115059;28;20206;-58
2023/06/20 05:34:53;;;;;;;15.75;11.23;;;;;;;;;;5115083;28;20202;-58
2023/06/20 05:37:20;;;;;;;16.55;11.27;;;;;;;;;;5133926;27;20201;-58
2023/06/20 05:39:47;;;;;;;18.40;11.80;;;;;;;;;;5135185;27;20289;-58
2023/06/20 05:42:14;;;;;;;17.33;12.68;;;;;;;;;;5135360;27;20237;-58
2023/06/20 05:44:41;;;;;;;16.67;11.30;;;;;;;;;;5135571;27;20208;-58
2023/06/20 05:47:17;;;;;;;17.48;11.27;;;;;;;;;;5135172;27;20201;-58
2023/06/20 05:49:45;;;;;;;16.35;11.63;;;;;;;;;;5135069;27;20591;-58
2023/06/20 05:52:13;;;;;;;15.63;11.43;;;;;;;;;;5134997;27;20583;-59
2023/06/20 05:54:41;;;;;;;14.88;10.98;;;;;;;;;;5135361;27;20258;-58
2023/06/20 05:57:09;;;;;;;17.60;13.00;;;;;;;;;;5134933;27;20201;-58
2023/06/20 05:59:36;;;;;;;15.75;11.48;;;;;;;;;;5135075;27;20197;-58
2023/06/20 06:02:05;;;;;;;16.73;11.82;;;;;;;;;;5134807;27;20239;-58
2023/06/20 06:04:33;;;;;;;15.27;12.13;;;;;;;;;;5134947;27;20225;-58
2023/06/20 06:07:01;;;;;;;17.60;11.60;;;;;;;;;;5135080;27;20206;-58
2023/06/20 06:09:28;;;;;;;15.13;11.25;;;;;;;;;;5135015;27;20197;-58
2023/06/20 06:11:55;;;;;;;13.88;10.35;;;;;;;;;;5134854;27;20236;-58
2023/06/20 06:14:22;;;;;;;17.23;11.57;;;;;;;;;;5134953;27;20228;-58
2023/06/20 06:16:50;;;;;;;14.65;11.05;;;;;;;;;;5134643;27;20597;-57
2023/06/20 06:19:19;;;;;;;16.67;12.30;;;;;;;;;;5134548;27;20679;-59
2023/06/20 06:21:47;;;;;;;17.42;11.85;;;;;;;;;;5135064;27;20221;-59
2023/06/20 06:24:14;;;;;;;16.25;11.55;;;;;;;;;;5134759;27;20292;-58
2023/06/20 06:26:41;;;;;;;15.98;11.48;;;;;;;;;;5134996;27;20209;-59
2023/06/20 06:29:08;;;;;;;15.75;11.10;;;;;;;;;;5134457;27;20684;-59
2023/06/20 06:31:37;;;;;;;16.58;11.20;;;;;;;;;;5134469;27;20236;-58
2023/06/20 06:34:04;;;;;;;16.25;11.88;;;;;;;;;;5134686;27;20212;-58
2023/06/20 06:36:32;;;;;;;16.77;12.18;;;;;;;;;;5134238;27;20197;-58
2023/06/20 06:39:00;;;;;;;16.63;12.10;;;;;;;;;;5116444;28;20193;-57
2023/06/20 06:41:27;;;;;;;16.17;11.95;;;;;;;;;;5116499;28;20278;-59
2023/06/20 06:43:54;;;;;;;16.15;11.55;;;;;;;;;;5134250;28;20197;-58
2023/06/20 06:46:22;;;;;;;16.45;11.40;;;;;;;;;;5116477;28;20215;-59
2023/06/20 06:48:49;;;;;;;18.30;12.38;;;;;;;;;;5134598;28;20219;-58
2023/06/20 06:51:16;;;;;;;17.67;11.60;;;;;;;;;;5134524;28;20209;-58
2023/06/20 06:53:43;;;;;;;17.13;11.73;;;;;;;;;;5134173;28;20202;-59
2023/06/20 06:56:11;;;;;;;14.40;9.85;;;;;;;;;;5134568;28;20193;-58
2023/06/20 06:58:38;;;;;;;16.23;11.10;;;;;;;;;;5134153;28;20201;-58
2023/06/20 07:01:05;;;;;;;14.27;10.98;;;;;;;;;;5134439;28;20237;-58
2023/06/20 07:03:32;;;;;;;14.77;11.63;;;;;;;;;;5134120;28;20208;-59
2023/06/20 07:06:00;;;;;;;14.32;10.43;;;;;;;;;;5134115;28;20725;-59
2023/06/20 07:08:27;;;;;;;14.73;9.48;;;;;;;;;;5134427;28;20202;-59
2023/06/20 07:10:54;;;;;;;13.93;10.23;;;;;;;;;;5134519;28;20364;-58
2023/06/20 07:13:24;;;;;;;12.85;9.82;;;;;;;;;;5134378;28;20208;-58
2023/06/20 07:15:51;;;;;;;11.52;9.40;;;;;;;;;;5134426;28;20274;-58
2023/06/20 07:18:19;;;;;;;13.05;9.40;;;;;;;;;;5134189;28;20194;-58
2023/06/20 07:20:46;;;;;;;12.93;8.40;;;;;;;;;;5134175;28;20201;-59
2023/06/20 07:23:13;;;;;;;9.68;8.02;;;;;;;;;;5133939;28;20687;-58
2023/06/20 07:25:40;;;;;;;13.93;8.48;;;;;;;;;;5133951;28;20202;-57
2023/06/20 07:28:07;;;;;;;11.55;7.78;;;;;;;;;;5115943;28;20284;-57
2023/06/20 07:30:34;;;;;;;10.82;8.15;;;;;;;;;;5134181;28;20201;-58
2023/06/20 07:33:01;;;;;;;8.25;7.00;;;;;;;;;;5133954;28;20198;-58
2023/06/20 07:35:29;;;;;;;8.82;7.13;;;;;;;;;;5134130;28;20553;-58
2023/06/20 07:37:56;;;;;;;7.82;5.80;;;;;;;;;;5134081;28;20205;-58
2023/06/20 07:40:23;;;;;;;7.60;5.85;;;;;;;;;;5134061;28;20205;-58
2023/06/20 07:42:50;;;;;;;8.02;6.20;;;;;;;;;;5133493;28;20227;-57
2023/06/20 07:45:17;;;;;;;9.73;6.25;;;;;;;;;;5133772;28;20553;-58
2023/06/20 07:47:44;;;;;;;6.45;4.82;;;;;;;;;;5135880;27;20657;-58
2023/06/20 07:50:12;;;;;;;7.38;5.10;;;;;;;;;;5137691;27;20201;-57
2023/06/20 07:52:40;;;;;;;7.03;4.70;;;;;;;;;;5137221;27;20660;-57
2023/06/20 07:55:08;;;;;;;5.20;4.05;;;;;;;;;;5137267;27;20197;-57
2023/06/20 07:57:56;;;;;;;6.22;4.63;;;;;;;;;;5137434;27;20209;-58
2023/06/20 08:00:25;;;;;;;6.03;4.90;;;;;;;;;;5137664;27;20205;-58
2023/06/20 08:02:52;;;;;;;5.20;4.20;;;;;;;;;;5137419;27;20217;-58
2023/06/20 08:05:20;;;;;;;5.80;4.22;;;;;;;;;;5137476;27;20228;-58
2023/06/20 08:07:47;;;;;;;5.20;4.00;;;;;;;;;;5136971;27;20662;-58
2023/06/20 08:10:17;;;;;;;5.97;4.18;;;;;;;;;;5137055;27;20598;-58
2023/06/20 08:12:44;;;;;;;5.63;4.10;;;;;;;;;;5137200;27;20210;-58
2023/06/20 08:15:11;;;;;;;5.78;3.92;;;;;;;;;;5137097;27;20209;-59
2023/06/20 08:17:38;;;;;;;5.30;4.32;;;;;;;;;;5137071;27;20197;-57
2023/06/20 08:20:08;;;;;;;5.45;4.13;;;;;;;;;;5137069;27;20205;-58
2023/06/20 08:22:36;;;;;;;5.35;4.43;;;;;;;;;;5136647;27;20309;-57
2023/06/20 08:25:04;;;;;;;5.13;4.22;;;;;;;;;;5137083;27;20193;-58
2023/06/20 08:27:31;;;;;;;5.22;4.70;;;;;;;;;;5136971;27;20610;-58
2023/06/20 08:29:59;;;;;;;5.82;3.95;;;;;;;;;;5136932;27;20201;-57
2023/06/20 08:32:26;;;;;;;5.05;3.95;;;;;;;;;;5136631;27;20205;-58
2023/06/20 08:34:53;;;;;;;4.47;4.00;;;;;;;;;;5136836;27;20257;-58
2023/06/20 08:37:23;;;;;;;5.45;3.80;;;;;;;;;;5136734;27;20205;-58
2023/06/20 08:39:50;;;;;;;5.95;4.20;;;;;;;;;;5136583;27;20202;-58
2023/06/20 08:42:18;;;;;;;6.60;4.40;;;;;;;;;;5136598;27;20223;-58
2023/06/20 08:44:45;;;;;;;5.30;3.53;;;;;;;;;;5136387;27;20201;-57
2023/06/20 08:47:15;;;;;;;5.60;4.10;;;;;;;;;;5136262;27;20202;-57
2023/06/20 08:49:42;;;;;;;4.45;3.67;;;;;;;;;;5136556;27;20606;-58
2023/06/20 08:52:11;;;;;;;4.22;3.72;;;;;;;;;;5136576;27;20201;-58
2023/06/20 08:54:40;;;;;;;3.85;3.15;;;;;;;;;;5136170;27;20212;-58
2023/06/20 08:57:07;;;;;;;5.53;3.50;;;;;;;;;;5118498;27;20197;-57
2023/06/20 08:59:36;;;;;;;5.38;3.88;;;;;;;;;;5135655;27;20201;-57
2023/06/20 09:02:03;;;;;;;5.10;4.38;;;;;;;;;;5135949;27;20312;-58
2023/06/20 09:04:31;;;;;;;3.72;3.25;;;;;;;;;;5117920;27;20633;-57
2023/06/20 09:06:58;;;;;;;4.25;3.25;;;;;;;;;;5135918;27;20202;-57
2023/06/20 09:09:25;;;;;;;3.85;3.30;;;;;;;;;;5117844;27;20675;-57
2023/06/20 09:11:58;;;;;;;4.60;3.15;;;;;;;;;;5135765;27;20687;-58
2023/06/20 09:14:27;;;;;;;4.95;3.38;;;;;;;;;;5135771;27;20574;-58
2023/06/20 09:16:57;;;;;;;4.53;3.65;;;;;;;;;;5136256;27;20201;-58
2023/06/20 09:19:25;;;;;;;4.63;3.10;;;;;;;;;;5135605;27;20208;-57
2023/06/20 09:22:02;;;;;;;4.75;3.40;;;;;;;;;;5117898;27;20614;-57
2023/06/20 09:24:44;;;;;;;3.72;2.85;;;;;;;;;;5135582;27;20679;-57
2023/06/20 09:27:12;;;;;;;3.40;2.90;;;;;;;;;;5135581;27;20193;-58
2023/06/20 09:29:52;;;;;;;4.47;3.42;;;;;;;;;;5135561;27;20656;-57
2023/06/20 09:32:20;;;;;;;4.10;3.35;;;;;;;;;;5135527;27;20266;-57
2023/06/20 09:34:49;;;;;;;4.82;3.72;;;;;;;;;;5135478;27;20201;-57
2023/06/20 09:37:17;;;;;;;3.83;3.25;;;;;;;;;;5135531;27;20228;-57
2023/06/20 09:39:44;;;;;;;3.40;3.10;;;;;;;;;;5135241;27;20695;-55
2023/06/20 09:42:14;;;;;;;3.60;2.60;;;;;;;;;;5135427;27;20270;-58
2023/06/20 09:44:42;;;;;;;3.60;2.70;;;;;;;;;;5135356;27;20287;-55
2023/06/20 09:47:09;;;;;;;3.70;3.00;;;;;;;;;;5135173;27;20652;-58
2023/06/20 09:49:39;;;;;;;4.07;3.40;;;;;;;;;;5135280;27;20197;-58
2023/06/20 09:52:14;;;;;;;4.78;3.03;;;;;;;;;;5135090;27;20735;-58
2023/06/20 09:55:07;;;;;;;3.08;2.45;;;;;;;;;;5118606;27;20258;-57
2023/06/20 09:57:43;;;;;;;3.60;3.03;;;;;;;;;;5117058;27;20201;-58
2023/06/20 10:00:15;;;;;;;3.38;3.05;;;;;;;;;;5135082;27;20193;-58
2023/06/20 10:02:48;;;;;;;4.22;3.30;;;;;;;;;;5135391;27;20217;-57
2023/06/20 10:05:19;;;;;;;5.20;3.13;;;;;;;;;;5135063;27;20327;-58
2023/06/20 10:07:47;;;;;;;4.82;3.50;;;;;;;;;;5135114;27;20197;-57
2023/06/20 10:10:16;;;;;;;4.60;3.75;;;;;;;;;;5133784;27;20270;-58
2023/06/20 10:12:45;;;;;;;3.38;2.97;;;;;;;;;;5135025;27;20212;-57
2023/06/20 10:15:16;;;;;;;4.13;3.70;;;;;;;;;;5133928;27;20246;-57
2023/06/20 10:17:46;;;;;;;4.10;3.63;;;;;;;;;;5116840;27;20200;-57
2023/06/20 10:20:24;;;;;;;5.65;3.70;;;;;;;;;;5082818;27;20687;-57
2023/06/20 10:22:55;;;;;;;4.57;3.65;;;;;;;;;;5133947;27;20213;-56
2023/06/20 10:25:22;;;;;;;6.28;3.30;;;;;;;;;;5134812;27;20258;-58
2023/06/20 10:27:59;;;;;;;4.35;3.45;;;;;;;;;;5134503;27;20208;-59
2023/06/20 10:30:54;;;;;;;4.35;3.35;;;;;;;;;;5134531;27;20197;-58
2023/06/20 10:33:25;;;;;;;3.75;3.33;;;;;;;;;;5134142;27;20218;-57
2023/06/20 10:35:59;;;;;;;4.07;3.67;;;;;;;;;;5134746;28;20205;-58
2023/06/20 10:38:27;;;;;;;4.47;3.42;;;;;;;;;;5134706;28;20219;-58
2023/06/20 10:41:28;;;;;;;4.15;3.45;;;;;;;;;;5134134;28;20193;-57
2023/06/20 10:43:59;;;;;;;5.35;3.30;;;;;;;;;;5126507;28;20613;-58
2023/06/20 10:46:46;;;;;;;4.35;3.33;;;;;;;;;;5134753;28;20212;-57
2023/06/20 10:49:13;;;;;;;4.40;3.80;;;;;;;;;;5134675;28;20197;-58
2023/06/20 10:51:51;;;;;;;4.18;3.75;;;;;;;;;;5134271;28;20197;-58
2023/06/20 10:54:18;;;;;;;4.45;4.05;;;;;;;;;;5134544;28;20181;-57
2023/06/20 10:56:49;;;;;;;4.65;3.85;;;;;;;;;;5134524;28;20205;-58
2023/06/20 10:59:18;;;;;;;5.80;4.05;;;;;;;;;;5134560;28;20243;-58
2023/06/20 11:01:45;;;;;;;5.28;4.13;;;;;;;;;;5134345;28;20194;-57
2023/06/20 11:04:14;;;;;;;6.18;4.53;;;;;;;;;;5134231;28;20230;-58
2023/06/20 11:06:42;;;;;;;5.68;4.28;;;;;;;;;;5134030;28;20208;-58
2023/06/20 11:09:16;;;;;;;7.03;4.30;;;;;;;;;;5134383;28;20193;-56
2023/06/20 11:11:43;;;;;;;5.97;4.53;;;;;;;;;;5134525;28;20197;-56
2023/06/20 11:14:10;;;;;;;5.15;4.22;;;;;;;;;;5133994;28;20202;-57
2023/06/20 11:16:39;;;;;;;5.97;4.50;;;;;;;;;;5133988;28;20714;-58
2023/06/20 11:19:06;;;;;;;7.53;4.80;;;;;;;;;;5133979;28;20201;-58
2023/06/20 11:21:53;;;;;;;5.50;4.50;;;;;;;;;;5134818;27;20280;-57
2023/06/20 11:24:20;;;;;;;5.75;4.32;;;;;;;;;;5138180;27;20224;-56
2023/06/20 11:26:48;;;;;;;6.03;4.50;;;;;;;;;;5137975;27;20202;-57
2023/06/20 11:29:15;;;;;;;5.75;4.63;;;;;;;;;;5138115;27;20205;-57
2023/06/20 11:31:43;;;;;;;5.60;4.38;;;;;;;;;;5137743;27;20678;-57
2023/06/20 11:34:12;;;;;;;5.90;4.25;;;;;;;;;;5137999;27;20201;-57
2023/06/20 11:36:39;;;;;;;5.57;4.70;;;;;;;;;;5138092;27;20197;-58
2023/06/20 11:39:08;;;;;;;5.78;4.60;;;;;;;;;;5137627;27;20713;-58
2023/06/20 11:41:35;;;;;;;5.55;4.30;;;;;;;;;;5138125;27;20201;-58
2023/06/20 11:44:06;;;;;;;5.82;4.45;;;;;;;;;;5137464;27;20245;-57
2023/06/20 11:46:43;;;;;;;6.10;4.53;;;;;;;;;;5120140;27;20197;-57
2023/06/20 11:49:11;;;;;;;5.47;4.32;;;;;;;;;;5135463;27;20238;-55
2023/06/20 11:51:38;;;;;;;5.70;4.18;;;;;;;;;;5116352;27;20201;-57
2023/06/20 11:54:12;;;;;;;5.28;4.30;;;;;;;;;;5136664;27;20235;-56
2023/06/20 11:56:39;;;;;;;4.97;3.78;;;;;;;;;;5136761;27;20186;-56
2023/06/20 11:59:08;;;;;;;5.00;4.00;;;;;;;;;;5137652;27;20201;-59
2023/06/20 12:01:36;;;;;;;4.88;3.97;;;;;;;;;;5137388;27;20212;-58
2023/06/20 12:04:08;;;;;;;4.82;4.10;;;;;;;;;;5136663;27;20239;-58
2023/06/20 12:06:37;;;;;;;5.70;4.45;;;;;;;;;;5133512;27;20182;-58
2023/06/20 12:09:08;;;;;;;4.70;3.70;;;;;;;;;;5136849;27;20185;-58
2023/06/20 12:11:46;;;;;;;4.82;3.95;;;;;;;;;;5133854;27;20197;-58
2023/06/20 12:14:16;;;;;;;4.78;4.00;;;;;;;;;;5135224;27;20610;-58
2023/06/20 12:16:44;;;;;;;4.55;3.70;;;;;;;;;;5134018;27;20243;-58
2023/06/20 12:19:11;;;;;;;4.10;3.70;;;;;;;;;;5136450;27;20595;-56
2023/06/20 12:21:38;;;;;;;4.75;3.92;;;;;;;;;;5136204;27;20197;-58
2023/06/20 12:24:06;;;;;;;4.47;3.80;;;;;;;;;;5136920;27;20579;-58
2023/06/20 12:26:34;;;;;;;5.43;4.15;;;;;;;;;;5135368;27;20678;-58
2023/06/20 12:29:02;;;;;;;5.05;3.72;;;;;;;;;;5136272;27;20225;-58
2023/06/20 12:31:30;;;;;;;4.05;3.50;;;;;;;;;;5136427;27;20190;-59
2023/06/20 12:33:58;;;;;;;3.92;3.53;;;;;;;;;;5135321;27;20208;-58
2023/06/20 12:36:25;;;;;;;4.18;3.67;;;;;;;;;;5136015;27;20208;-57
2023/06/20 12:38:52;;;;;;;4.30;3.80;;;;;;;;;;5133103;27;20644;-58
2023/06/20 12:41:21;;;;;;;5.05;3.92;;;;;;;;;;5125531;27;20258;-58
2023/06/20 12:43:49;;;;;;;5.15;3.97;;;;;;;;;;5128459;27;20217;-58
2023/06/20 12:46:16;;;;;;;4.70;3.78;;;;;;;;;;5133286;27;20217;-56
2023/06/20 12:48:44;;;;;;;3.85;3.13;;;;;;;;;;5134351;27;20703;-58
2023/06/20 12:51:11;;;;;;;4.13;3.50;;;;;;;;;;5131374;27;20233;-58
2023/06/20 12:53:38;;;;;;;4.00;3.55;;;;;;;;;;5134850;27;20217;-57
2023/06/20 12:56:06;;;;;;;4.25;3.38;;;;;;;;;;5134272;27;20216;-57
2023/06/20 12:58:34;;;;;;;4.80;3.80;;;;;;;;;;5134803;27;20225;-57
2023/06/20 13:01:02;;;;;;;4.72;3.70;;;;;;;;;;5133688;27;20333;-57
2023/06/20 13:03:29;;;;;;;5.43;3.67;;;;;;;;;;5134321;27;20237;-57
2023/06/20 13:05:56;;;;;;;4.63;3.20;;;;;;;;;;5132999;27;20274;-56
2023/06/20 13:08:23;;;;;;;4.55;3.35;;;;;;;;;;5134110;27;20635;-53
2023/06/20 13:10:51;;;;;;;4.22;3.10;;;;;;;;;;5134201;27;20213;-59
2023/06/20 13:13:18;;;;;;;3.40;3.10;;;;;;;;;;5134528;27;20228;-54
2023/06/20 13:15:45;;;;;;;3.67;3.17;;;;;;;;;;5134672;27;20213;-53
2023/06/20 13:18:12;;;;;;;4.13;3.38;;;;;;;;;;5134428;27;20217;-56
2023/06/20 13:20:39;;;;;;;5.03;3.80;;;;;;;;;;5133833;27;20221;-51
2023/06/20 13:23:06;;;;;;;4.80;3.28;;;;;;;;;;5134279;27;20656;-56
2023/06/20 13:25:34;;;;;;;4.00;3.03;;;;;;;;;;5134406;27;20220;-54
2023/06/20 13:28:01;;;;;;;3.58;2.97;;;;;;;;;;5133955;27;20213;-56
2023/06/20 13:30:28;;;;;;;4.38;3.20;;;;;;;;;;5133855;27;20220;-56
2023/06/20 13:32:55;;;;;;;4.43;3.00;;;;;;;;;;5133848;27;20544;-54
2023/06/20 13:35:23;;;;;;;4.20;3.15;;;;;;;;;;5133846;27;20217;-56
2023/06/20 13:37:50;;;;;;;3.88;3.20;;;;;;;;;;5133829;27;20704;-55
2023/06/20 13:40:19;;;;;;;3.40;2.80;;;;;;;;;;5131398;27;20224;-56
2023/06/20 13:42:48;;;;;;;4.55;3.60;;;;;;;;;;5133851;27;20581;-56
2023/06/20 13:45:17;;;;;;;6.45;3.45;;;;;;;;;;5134255;27;20220;-56
2023/06/20 13:47:45;;;;;;;4.63;3.60;;;;;;;;;;5134299;27;20235;-56
2023/06/20 13:50:14;;;;;;;3.70;3.25;;;;;;;;;;5127838;27;20209;-55
2023/06/20 13:52:41;;;;;;;4.50;3.78;;;;;;;;;;5113767;28;20308;-56
2023/06/20 13:55:10;;;;;;;4.45;3.30;;;;;;;;;;5120840;27;20229;-56
2023/06/20 13:57:37;;;;;;;4.18;3.20;;;;;;;;;;5134120;27;20221;-53
2023/06/20 14:00:11;;;;;;;4.85;3.63;;;;;;;;;;5134244;27;20221;-54
2023/06/20 14:02:39;;;;;;;4.07;3.35;;;;;;;;;;5134537;27;20225;-55
2023/06/20 14:05:07;;;;;;;4.53;3.38;;;;;;;;;;5132029;27;20571;-54
2023/06/20 14:07:35;;;;;;;3.80;3.35;;;;;;;;;;5132583;27;20243;-56
2023/06/20 14:10:03;;;;;;;4.28;3.20;;;;;;;;;;5127475;27;20235;-54
2023/06/20 14:12:30;;;;;;;3.97;3.17;;;;;;;;;;5122737;27;20274;-52
2023/06/20 14:14:58;;;;;;;4.35;3.50;;;;;;;;;;5133912;27;20221;-53
2023/06/20 14:17:26;;;;;;;3.90;3.25;;;;;;;;;;5134244;27;20223;-53
2023/06/20 14:19:54;;;;;;;3.58;2.95;;;;;;;;;;5133369;27;20217;-55
2023/06/20 14:22:20;;;;;;;3.97;3.17;;;;;;;;;;5127154;27;20221;-55
2023/06/20 14:24:48;;;;;;;3.88;3.00;;;;;;;;;;5113995;28;20235;-52
2023/06/20 14:27:16;;;;;;;4.18;3.55;;;;;;;;;;5119988;27;20624;-54
2023/06/20 14:29:43;;;;;;;4.75;3.75;;;;;;;;;;5133603;27;20220;-53
2023/06/20 14:32:10;;;;;;;4.22;3.30;;;;;;;;;;5133852;27;20217;-54
2023/06/20 14:34:38;;;;;;;4.03;2.97;;;;;;;;;;5133831;27;20224;-55
2023/06/20 14:37:05;;;;;;;3.88;3.22;;;;;;;;;;5134001;28;20217;-55
2023/06/20 14:39:32;;;;;;;5.00;3.33;;;;;;;;;;5134363;28;20204;-54
2023/06/20 14:42:00;;;;;;;3.97;3.30;;;;;;;;;;5134678;28;20205;-54
2023/06/20 14:44:27;;;;;;;3.95;3.10;;;;;;;;;;5134895;28;20225;-54
2023/06/20 14:46:55;;;;;;;4.63;3.40;;;;;;;;;;5134553;28;20544;-54